Time;durP1;ratioP1;P1;durP2;ratioP2;P2;SDS_P1;SDS_P2;PMS_P1;PMS_P2;Temp;Humidity;BMP_temperature;BMP_pressure;BME280_temperature;BME280_humidity;BME280_pressure;Samples;Min_cycle;Max_cycle;Signal;HPM_P1;HPM_P2
2023/08/06 00:01:09;;;;;;;17.13;7.53;;;;;;;26.49;52.72;99509.64;123997;1099;104286;-78
2023/08/06 00:03:50;;;;;;;15.83;7.87;;;;;;;26.45;52.81;99503.53;123960;1099;104220;-77
2023/08/06 00:06:19;;;;;;;16.63;7.73;;;;;;;26.42;53.53;99503.67;123925;1099;104360;-77
2023/08/06 00:08:47;;;;;;;12.83;7.50;;;;;;;26.39;53.45;99503.81;123899;1099;104357;-77
2023/08/06 00:11:16;;;;;;;16.87;7.93;;;;;;;26.36;53.41;99499.44;124008;1099;104267;-77
2023/08/06 00:13:44;;;;;;;18.83;7.93;;;;;;;26.35;53.80;99494.13;124062;1099;104217;-77
2023/08/06 00:16:13;;;;;;;15.43;7.67;;;;;;;26.32;53.63;99500.55;123907;1099;104332;-77
2023/08/06 00:18:42;;;;;;;16.53;7.80;;;;;;;26.30;53.64;99491.68;123910;1098;105692;-77
2023/08/06 00:21:12;;;;;;;17.03;8.13;;;;;;;26.28;53.79;99492.69;123927;1099;104331;-77
2023/08/06 00:23:41;;;;;;;14.33;7.87;;;;;;;26.25;54.43;99480.23;123867;1099;104283;-77
2023/08/06 00:26:09;;;;;;;16.37;8.10;;;;;;;26.23;54.30;99483.96;123928;1099;104377;-76
2023/08/06 00:28:38;;;;;;;15.17;7.63;;;;;;;26.19;54.70;99477.83;123904;1099;104421;-76
2023/08/06 00:31:07;;;;;;;16.60;8.30;;;;;;;26.17;54.45;99474.34;124060;1099;104271;-77
2023/08/06 00:33:35;;;;;;;14.90;7.97;;;;;;;26.14;54.50;99478.03;124011;1099;104354;-77
2023/08/06 00:36:04;;;;;;;13.67;8.10;;;;;;;26.12;54.91;99463.80;123974;1099;104252;-77
2023/08/06 00:38:32;;;;;;;16.37;8.30;;;;;;;26.11;55.21;99464.73;124063;1099;104248;-77
2023/08/06 00:41:01;;;;;;;12.23;7.63;;;;;;;26.09;55.41;99461.25;123579;1099;104358;-77
2023/08/06 00:43:32;;;;;;;18.63;8.07;;;;;;;26.06;55.13;99461.38;124081;1099;104699;-77
2023/08/06 00:46:02;;;;;;;18.20;8.00;;;;;;;26.05;55.49;99467.69;124091;1099;104188;-77
2023/08/06 00:48:31;;;;;;;18.40;7.83;;;;;;;26.04;55.49;99467.76;124173;1099;104245;-77
2023/08/06 00:50:59;;;;;;;18.97;7.60;;;;;;;26.00;55.40;99464.34;123902;1099;104207;-77
2023/08/06 00:53:28;;;;;;;15.80;7.70;;;;;;;25.98;56.12;99466.23;123982;1099;104427;-77
2023/08/06 00:55:57;;;;;;;14.40;7.55;;;;;;;25.96;55.70;99463.58;123621;1099;104290;-77
2023/08/06 00:58:26;;;;;;;15.80;7.97;;;;;;;25.94;56.43;99459.20;123867;1099;104248;-77
2023/08/06 01:00:55;;;;;;;12.70;7.57;;;;;;;25.93;56.74;99455.66;124184;1099;104191;-77
2023/08/06 01:03:24;;;;;;;16.80;7.93;;;;;;;25.91;56.22;99456.66;123783;1099;104271;-77
2023/08/06 01:05:53;;;;;;;16.17;7.67;;;;;;;25.87;56.87;99457.72;123686;1099;104329;-77
2023/08/06 01:08:35;;;;;;;15.53;7.43;;;;;;;25.83;56.99;99452.48;124149;1099;104271;-77
2023/08/06 01:11:18;;;;;;;13.00;7.63;;;;;;;25.82;56.99;99452.55;123843;1099;110551;-77
2023/08/06 01:13:49;;;;;;;15.70;7.90;;;;;;;25.78;57.09;99450.95;124026;1099;104229;-76
2023/08/06 01:16:19;;;;;;;18.45;8.10;;;;;;;25.76;57.53;99448.34;123990;1099;104255;-77
2023/08/06 01:18:49;;;;;;;16.80;8.00;;;;;;;25.75;57.09;99449.27;123725;1099;104341;-77
2023/08/06 01:21:18;;;;;;;18.13;8.33;;;;;;;25.74;57.61;99449.33;124179;1098;104262;-77
2023/08/06 01:23:48;;;;;;;15.87;7.80;;;;;;;25.72;57.68;99444.03;124176;1099;104236;-77
2023/08/06 01:26:24;;;;;;;17.40;8.17;;;;;;;25.71;57.60;99436.03;123760;1099;104248;-77
2023/08/06 01:28:59;;;;;;;17.20;8.10;;;;;;;25.67;58.12;99432.62;123847;1099;104239;-77
2023/08/06 01:31:32;;;;;;;12.73;7.93;;;;;;;25.65;57.78;99429.13;123781;1099;104320;-77
2023/08/06 01:34:02;;;;;;;18.40;8.00;;;;;;;25.62;58.29;99435.50;123998;1099;104239;-76
2023/08/06 01:36:31;;;;;;;16.20;8.33;;;;;;;25.58;58.11;99427.64;123955;1099;104198;-77
2023/08/06 01:39:01;;;;;;;15.70;8.50;;;;;;;25.56;58.54;99437.59;123874;1099;104328;-77
2023/08/06 01:41:29;;;;;;;14.70;8.10;;;;;;;25.56;58.56;99434.91;123996;1099;104260;-77
2023/08/06 01:43:59;;;;;;;16.80;8.07;;;;;;;25.56;59.06;99425.02;124035;1099;104264;-77
2023/08/06 01:46:28;;;;;;;16.77;7.60;;;;;;;25.56;58.98;99425.02;124012;1099;104251;-77
2023/08/06 01:48:56;;;;;;;13.67;8.10;;;;;;;25.57;58.81;99417.83;123981;1099;104386;-77
2023/08/06 01:51:25;;;;;;;18.60;8.00;;;;;;;25.59;59.14;99414.15;124184;1099;104280;-77
2023/08/06 01:53:54;;;;;;;17.40;8.50;;;;;;;25.61;59.08;99416.77;124188;1098;104238;-77
2023/08/06 01:56:25;;;;;;;18.20;8.30;;;;;;;25.61;59.28;99406.88;124231;1098;104207;-76
2023/08/06 01:58:53;;;;;;;18.40;8.17;;;;;;;25.60;59.80;99402.47;124203;1099;104454;-77
2023/08/06 02:01:22;;;;;;;14.67;7.93;;;;;;;25.59;59.63;99406.09;123885;1099;104271;-77
2023/08/06 02:03:50;;;;;;;16.67;8.70;;;;;;;25.59;59.70;99394.48;124184;1099;104348;-77
2023/08/06 02:06:19;;;;;;;16.57;8.47;;;;;;;25.57;60.01;99394.55;123934;1099;104361;-77
2023/08/06 02:08:47;;;;;;;16.33;8.10;;;;;;;25.55;60.23;99385.66;124098;1099;104242;-77
2023/08/06 02:11:18;;;;;;;19.10;8.50;;;;;;;25.53;60.06;99381.33;124230;1099;104217;-77
2023/08/06 02:13:47;;;;;;;18.03;8.30;;;;;;;25.48;60.15;99379.70;123845;1099;104798;-78
2023/08/06 02:16:19;;;;;;;17.77;8.60;;;;;;;25.45;60.53;99374.46;123776;1099;104316;-76
2023/08/06 02:18:47;;;;;;;16.47;8.50;;;;;;;25.42;60.17;99374.59;123972;1099;104322;-77
2023/08/06 02:21:16;;;;;;;17.45;8.45;;;;;;;25.40;60.34;99379.17;123890;1099;104380;-78
2023/08/06 02:23:44;;;;;;;17.60;8.27;;;;;;;25.41;60.36;99374.66;124015;1099;104246;-77
2023/08/06 02:26:13;;;;;;;15.90;8.90;;;;;;;25.41;60.69;99377.34;123982;1098;104344;-77
2023/08/06 02:28:41;;;;;;;16.33;8.33;;;;;;;25.40;60.75;99375.59;124165;1099;104217;-77
2023/08/06 02:31:10;;;;;;;16.80;8.65;;;;;;;25.40;60.69;99372.91;124014;1099;104364;-77
2023/08/06 02:33:39;;;;;;;18.00;8.10;;;;;;;25.39;61.26;99373.86;124042;1099;104350;-77
2023/08/06 02:36:08;;;;;;;20.90;8.70;;;;;;;25.37;61.50;99381.98;123740;1101;104328;-77
2023/08/06 02:38:36;;;;;;;20.37;9.70;;;;;;;25.37;61.18;99381.09;124003;1099;104265;-77
2023/08/06 02:41:05;;;;;;;20.30;8.67;;;;;;;25.38;61.32;99383.71;123962;1099;104277;-77
2023/08/06 02:43:34;;;;;;;17.10;8.70;;;;;;;25.37;61.31;99381.98;123986;1099;104699;-77
2023/08/06 02:46:03;;;;;;;18.95;8.55;;;;;;;25.36;61.52;99376.69;123985;1099;104286;-77
2023/08/06 02:48:32;;;;;;;17.47;8.43;;;;;;;25.36;62.03;99382.05;123697;1099;104338;-78
2023/08/06 02:51:01;;;;;;;17.07;8.17;;;;;;;25.36;62.26;99382.91;123994;1098;104296;-77
2023/08/06 02:53:31;;;;;;;18.83;8.47;;;;;;;25.37;62.19;99391.83;123996;1098;104251;-77
2023/08/06 02:56:01;;;;;;;17.33;8.43;;;;;;;25.34;61.99;99394.65;124066;1099;104322;-77
2023/08/06 02:58:37;;;;;;;17.03;9.10;;;;;;;25.32;62.56;99394.71;123934;1099;104336;-78
2023/08/06 03:01:26;;;;;;;17.70;8.63;;;;;;;25.30;62.68;99393.91;123797;1099;104635;-77
2023/08/06 03:03:58;;;;;;;17.87;8.83;;;;;;;25.27;62.29;99400.28;123601;1099;104334;-77
2023/08/06 03:06:31;;;;;;;17.73;8.63;;;;;;;25.27;62.68;99402.06;123718;1099;104239;-77
2023/08/06 03:09:00;;;;;;;17.87;8.53;;;;;;;25.24;63.05;99396.83;123904;1099;104173;-77
2023/08/06 03:11:32;;;;;;;16.47;8.93;;;;;;;25.22;62.59;99401.40;123849;1099;104322;-77
2023/08/06 03:14:08;;;;;;;17.50;9.37;;;;;;;25.24;62.87;99396.83;123644;1099;104257;-78
2023/08/06 03:16:38;;;;;;;16.80;9.33;;;;;;;25.26;62.96;99389.60;124049;1099;104197;-77
2023/08/06 03:19:07;;;;;;;17.50;9.23;;;;;;;25.29;63.05;99397.53;123606;1099;104254;-77
2023/08/06 03:21:36;;;;;;;21.17;9.10;;;;;;;25.30;63.47;99393.91;123849;1099;104354;-77
2023/08/06 03:24:05;;;;;;;17.57;8.90;;;;;;;25.31;63.19;99392.98;123723;1099;104374;-77
2023/08/06 03:26:34;;;;;;;17.97;8.90;;;;;;;25.34;63.06;99386.59;123729;1099;104333;-76
2023/08/06 03:29:04;;;;;;;15.97;9.33;;;;;;;25.33;63.53;99393.78;124204;1099;104274;-77
2023/08/06 03:31:32;;;;;;;18.50;9.13;;;;;;;25.32;63.88;99389.34;124137;1099;104243;-77
2023/08/06 03:34:01;;;;;;;15.67;8.87;;;;;;;25.33;64.00;99387.55;124178;1098;104379;-77
2023/08/06 03:36:30;;;;;;;18.33;9.00;;;;;;;25.33;63.96;99385.73;123864;1099;104331;-77
2023/08/06 03:38:58;;;;;;;18.00;9.40;;;;;;;25.35;63.75;99385.66;124178;1099;104277;-77
2023/08/06 03:41:28;;;;;;;19.90;9.15;;;;;;;25.34;64.22;99374.06;124218;1099;104852;-77
2023/08/06 03:43:56;;;;;;;17.03;9.30;;;;;;;25.30;64.31;99365.25;124017;1098;104277;-76
2023/08/06 03:46:27;;;;;;;17.27;9.37;;;;;;;25.26;64.09;99362.76;123656;1102;104360;-77
2023/08/06 03:48:56;;;;;;;22.10;9.17;;;;;;;25.25;63.99;99358.31;123561;1099;104414;-77
2023/08/06 03:51:25;;;;;;;17.40;8.97;;;;;;;25.27;64.31;99362.69;123644;1102;104281;-77
2023/08/06 03:53:54;;;;;;;35.97;18.73;;;;;;;25.29;64.75;99360.84;123903;1099;104224;-77
2023/08/06 03:56:23;;;;;;;36.97;18.50;;;;;;;25.31;64.30;99350.03;123746;1099;104241;-77
2023/08/06 03:58:51;;;;;;;54.23;35.77;;;;;;;25.28;64.63;99345.66;123593;1099;104259;-77
2023/08/06 04:01:20;;;;;;;50.63;31.80;;;;;;;25.27;64.23;99343.00;123932;1098;104389;-77
2023/08/06 04:03:49;;;;;;;55.80;35.07;;;;;;;25.31;64.19;99347.34;123708;1099;104233;-77
2023/08/06 04:06:18;;;;;;;45.20;29.93;;;;;;;25.28;64.63;99342.97;123926;1099;104268;-76
2023/08/06 04:08:46;;;;;;;42.40;28.50;;;;;;;25.30;64.23;99348.27;124075;1098;104287;-77
2023/08/06 04:11:15;;;;;;;41.67;23.73;;;;;;;25.31;64.30;99341.98;123765;1099;104260;-77
2023/08/06 04:13:45;;;;;;;26.97;14.93;;;;;;;25.30;64.43;99348.27;123913;1099;104772;-77
2023/08/06 04:16:14;;;;;;;22.57;12.13;;;;;;;25.29;63.94;99346.52;124065;1099;104693;-77
2023/08/06 04:18:43;;;;;;;21.57;11.03;;;;;;;25.31;63.84;99350.03;123739;1102;104393;-77
2023/08/06 04:21:11;;;;;;;19.87;10.93;;;;;;;25.34;64.32;99341.84;124136;1099;104270;-77
2023/08/06 04:23:40;;;;;;;22.20;10.80;;;;;;;25.37;63.90;99338.13;123995;1099;104271;-77
2023/08/06 04:26:09;;;;;;;20.53;10.60;;;;;;;25.40;64.03;99338.00;123604;1099;107787;-77
2023/08/06 04:28:38;;;;;;;20.70;11.03;;;;;;;25.38;63.89;99332.70;123630;1101;104268;-77
2023/08/06 04:31:06;;;;;;;20.70;11.57;;;;;;;25.40;63.96;99327.26;123760;1099;104259;-77
2023/08/06 04:33:36;;;;;;;21.37;10.63;;;;;;;25.42;63.83;99320.89;124052;1099;104264;-77
2023/08/06 04:36:08;;;;;;;19.67;10.72;;;;;;;25.44;63.36;99323.51;124001;1099;104220;-77
2023/08/06 04:38:38;;;;;;;21.63;11.20;;;;;;;25.44;63.22;99312.77;123788;1099;104051;-78
2023/08/06 04:41:07;;;;;;;21.33;10.17;;;;;;;25.48;63.53;99322.44;123614;1099;104451;-77
2023/08/06 04:43:35;;;;;;;18.43;10.60;;;;;;;25.50;63.26;99317.87;123917;1099;104341;-77
2023/08/06 04:46:04;;;;;;;20.63;10.77;;;;;;;25.52;62.88;99312.42;123631;1099;104258;-77
2023/08/06 04:48:32;;;;;;;22.27;11.67;;;;;;;25.56;62.69;99311.36;124041;1099;104235;-78
2023/08/06 04:51:01;;;;;;;22.37;11.33;;;;;;;25.56;62.24;99316.73;123938;1099;104309;-78
2023/08/06 04:53:29;;;;;;;20.03;11.30;;;;;;;25.56;62.60;99314.91;123917;1099;104261;-76
2023/08/06 04:55:58;;;;;;;23.07;11.67;;;;;;;25.59;62.56;99313.91;123884;1099;104629;-78
2023/08/06 04:58:26;;;;;;;23.57;11.10;;;;;;;25.62;62.28;99311.08;124072;1099;104244;-77
2023/08/06 05:00:55;;;;;;;20.90;11.50;;;;;;;25.62;61.82;99313.77;124105;1099;104271;-78
2023/08/06 05:03:24;;;;;;;26.30;11.90;;;;;;;25.61;62.06;99314.70;123871;1099;104402;-77
2023/08/06 05:05:52;;;;;;;22.30;11.60;;;;;;;25.61;62.22;99309.33;123939;1098;104242;-77
2023/08/06 05:08:21;;;;;;;22.33;11.30;;;;;;;25.64;62.11;99309.19;123654;1099;104386;-78
2023/08/06 05:10:49;;;;;;;23.40;11.90;;;;;;;25.68;61.78;99304.54;124046;1099;104241;-78
2023/08/06 05:13:18;;;;;;;18.47;10.50;;;;;;;25.70;62.20;99298.16;123732;1099;104328;-78
2023/08/06 05:15:46;;;;;;;22.73;11.33;;;;;;;25.73;61.67;99292.66;124040;1098;104408;-77
2023/08/06 05:18:15;;;;;;;21.17;12.07;;;;;;;25.78;62.06;99287.06;124030;1098;104200;-78
2023/08/06 05:20:44;;;;;;;20.10;11.57;;;;;;;25.82;61.83;99283.27;124188;1099;104360;-77
2023/08/06 05:23:12;;;;;;;22.03;11.43;;;;;;;25.86;61.86;99278.66;123697;1099;104322;-78
2023/08/06 05:25:41;;;;;;;21.70;12.30;;;;;;;25.91;61.43;99281.98;123894;1099;104242;-77
2023/08/06 05:28:09;;;;;;;22.40;12.35;;;;;;;25.97;62.06;99284.38;123582;1099;105124;-79
2023/08/06 05:30:41;;;;;;;20.63;12.10;;;;;;;26.05;61.88;99286.74;124068;1099;104345;-76
2023/08/06 05:33:09;;;;;;;19.40;11.90;;;;;;;26.11;61.71;99287.31;124009;1099;104195;-78
2023/08/06 05:35:38;;;;;;;21.17;12.07;;;;;;;26.15;61.80;99282.69;124020;1099;104853;-77
2023/08/06 05:38:07;;;;;;;25.40;12.47;;;;;;;26.18;62.12;99283.40;124032;1099;104342;-77
2023/08/06 05:40:35;;;;;;;22.33;11.97;;;;;;;26.23;62.00;99274.25;123804;1098;104329;-77
2023/08/06 05:43:04;;;;;;;23.77;11.40;;;;;;;26.27;61.99;99279.41;123884;1099;104242;-78
2023/08/06 05:45:32;;;;;;;22.17;11.53;;;;;;;26.33;61.78;99280.91;123993;1099;104174;-77
2023/08/06 05:48:01;;;;;;;19.87;11.03;;;;;;;26.37;61.66;99272.61;123925;1099;104271;-77
2023/08/06 05:50:30;;;;;;;20.93;11.13;;;;;;;26.45;61.77;99277.62;124082;1099;104347;-77
2023/08/06 05:52:58;;;;;;;24.27;11.33;;;;;;;26.51;61.80;99268.38;123939;1099;104239;-77
2023/08/06 05:55:32;;;;;;;22.30;10.93;;;;;;;26.58;62.04;99274.32;123939;1099;104259;-77
2023/08/06 05:58:01;;;;;;;19.47;10.83;;;;;;;26.63;62.67;99273.16;124116;1099;111986;-78
2023/08/06 06:00:30;;;;;;;21.33;11.30;;;;;;;26.67;62.51;99273.89;124005;1099;104223;-77
2023/08/06 06:02:58;;;;;;;22.07;10.60;;;;;;;26.71;62.25;99270.97;124077;1098;104265;-77
2023/08/06 06:05:27;;;;;;;19.70;10.30;;;;;;;26.73;62.76;99270.89;123977;1099;104165;-77
2023/08/06 06:07:55;;;;;;;20.80;10.50;;;;;;;26.78;62.79;99266.14;123923;1099;104703;-78
2023/08/06 06:10:24;;;;;;;19.83;10.77;;;;;;;26.82;62.89;99262.36;124113;1099;104252;-79
2023/08/06 06:12:52;;;;;;;19.53;10.23;;;;;;;26.87;62.88;99259.43;124343;1099;104348;-77
2023/08/06 06:15:21;;;;;;;20.37;10.57;;;;;;;26.94;63.07;99266.22;124470;1098;104268;-78
2023/08/06 06:17:49;;;;;;;16.87;10.03;;;;;;;27.02;63.11;99263.13;124468;1099;104326;-80
2023/08/06 06:20:18;;;;;;;21.33;10.60;;;;;;;27.03;63.30;99254.98;126050;1099;104233;-79
2023/08/06 06:22:46;;;;;;;21.20;10.33;;;;;;;27.10;63.34;99255.55;126532;1099;104184;-78
2023/08/06 06:25:15;;;;;;;18.07;9.80;;;;;;;27.16;63.15;99249.84;126539;1099;104226;-79
2023/08/06 06:27:44;;;;;;;17.60;9.60;;;;;;;27.21;62.96;99236.14;126904;1099;104242;-78
2023/08/06 06:30:14;;;;;;;18.47;10.20;;;;;;;27.29;63.21;99241.98;124883;1099;104408;-79
2023/08/06 06:32:42;;;;;;;23.80;10.83;;;;;;;27.33;63.03;99237.32;124226;1099;104242;-78
2023/08/06 06:35:11;;;;;;;25.57;10.60;;;;;;;27.37;62.83;99236.22;124250;1099;104274;-77
2023/08/06 06:37:39;;;;;;;19.43;9.93;;;;;;;27.41;63.10;99241.35;124021;1099;104270;-78
2023/08/06 06:40:10;;;;;;;19.00;9.85;;;;;;;27.46;62.98;99241.11;124519;1099;104191;-79
2023/08/06 06:42:39;;;;;;;20.77;11.03;;;;;;;27.51;62.80;99240.86;124444;1098;104409;-80
2023/08/06 06:45:11;;;;;;;23.70;10.53;;;;;;;27.57;63.06;99235.99;123808;1099;104740;-77
2023/08/06 06:47:39;;;;;;;20.80;9.97;;;;;;;27.67;63.01;99230.10;124300;1099;104322;-78
2023/08/06 06:50:09;;;;;;;17.20;10.05;;;;;;;27.76;63.13;99234.98;124377;1099;104210;-79
2023/08/06 06:52:38;;;;;;;17.00;9.83;;;;;;;27.88;62.86;99237.00;124333;1099;104210;-78
2023/08/06 06:55:08;;;;;;;18.93;10.10;;;;;;;27.97;63.03;99232.92;124029;1099;104322;-79
2023/08/06 06:57:38;;;;;;;21.80;9.27;;;;;;;28.06;62.92;99223.46;123892;1098;104245;-78
2023/08/06 07:00:09;;;;;;;20.50;9.57;;;;;;;28.18;62.66;99225.45;124053;1099;104169;-77
2023/08/06 07:02:39;;;;;;;17.80;9.60;;;;;;;28.28;62.82;99223.98;124404;1099;104280;-75
2023/08/06 07:05:09;;;;;;;20.67;8.70;;;;;;;28.40;62.34;99208.03;123939;1099;104254;-78
2023/08/06 07:07:38;;;;;;;18.07;8.77;;;;;;;28.55;62.12;99215.23;123890;1099;104326;-77
2023/08/06 07:10:08;;;;;;;18.90;8.63;;;;;;;28.71;61.65;99225.14;123682;1099;104341;-77
2023/08/06 07:12:37;;;;;;;16.80;9.40;;;;;;;28.86;61.59;99221.53;123778;1099;104318;-78
2023/08/06 07:15:08;;;;;;;18.33;9.13;;;;;;;28.98;61.61;99214.49;123674;1099;104242;-77
2023/08/06 07:17:36;;;;;;;18.67;9.37;;;;;;;29.11;60.94;99214.60;123855;1098;104242;-77
2023/08/06 07:20:08;;;;;;;18.73;9.40;;;;;;;29.24;60.65;99210.23;123746;1099;104351;-77
2023/08/06 07:22:36;;;;;;;18.80;8.50;;;;;;;29.34;61.03;99211.41;123877;1099;104345;-78
2023/08/06 07:25:06;;;;;;;18.23;8.53;;;;;;;29.48;60.40;99198.84;123900;1099;104376;-77
2023/08/06 07:27:35;;;;;;;15.67;8.50;;;;;;;29.62;59.78;99206.06;123950;1099;104240;-78
2023/08/06 07:30:05;;;;;;;18.10;8.85;;;;;;;29.76;59.80;99206.05;123870;1099;117941;-77
2023/08/06 07:32:33;;;;;;;20.63;8.80;;;;;;;29.94;59.21;99198.63;124031;1099;104239;-80
2023/08/06 07:35:02;;;;;;;16.80;8.50;;;;;;;30.13;58.80;99197.41;124022;1099;104302;-79
2023/08/06 07:37:31;;;;;;;16.67;8.60;;;;;;;30.27;58.81;99198.22;124040;1099;104172;-78
2023/08/06 07:39:59;;;;;;;15.77;8.00;;;;;;;30.39;58.28;99195.71;124214;1099;104194;-79
2023/08/06 07:42:28;;;;;;;15.57;7.63;;;;;;;30.51;57.76;99199.41;124163;1099;104313;-77
2023/08/06 07:44:58;;;;;;;16.97;7.53;;;;;;;30.60;57.50;99193.37;123826;1099;104453;-77
2023/08/06 07:47:26;;;;;;;13.67;7.53;;;;;;;30.66;56.93;99201.08;123941;1099;104268;-77
2023/08/06 07:49:55;;;;;;;13.70;7.33;;;;;;;30.76;56.96;99204.01;123954;1099;104245;-77
2023/08/06 07:52:24;;;;;;;14.40;7.60;;;;;;;30.92;56.49;99210.11;123749;1099;104310;-76
2023/08/06 07:54:54;;;;;;;15.50;7.23;;;;;;;31.09;56.33;99206.27;124059;1099;104412;-77
2023/08/06 07:57:23;;;;;;;13.87;7.27;;;;;;;31.27;55.74;99203.23;123680;1099;104277;-77
2023/08/06 07:59:53;;;;;;;15.27;7.00;;;;;;;31.41;54.98;99202.25;123947;1099;104274;-77
2023/08/06 08:02:25;;;;;;;14.50;7.20;;;;;;;31.53;54.82;99201.37;123939;1099;104255;-78
2023/08/06 08:04:53;;;;;;;13.13;6.87;;;;;;;31.59;54.47;99200.10;123890;1099;104238;-77
2023/08/06 08:07:22;;;;;;;15.47;7.23;;;;;;;31.74;54.21;99198.10;123840;1099;104274;-76
2023/08/06 08:09:50;;;;;;;15.40;7.10;;;;;;;31.89;53.81;99189.70;123843;1099;105755;-78
2023/08/06 08:12:19;;;;;;;15.77;7.50;;;;;;;31.95;53.67;99192.95;123948;1099;104287;-76
2023/08/06 08:14:47;;;;;;;18.10;7.20;;;;;;;32.04;53.14;99198.55;123737;1099;104319;-76
2023/08/06 08:17:16;;;;;;;14.90;6.83;;;;;;;32.18;52.61;99188.53;123757;1099;104357;-76
2023/08/06 08:19:45;;;;;;;13.97;6.77;;;;;;;32.31;51.38;99175.78;123756;1099;104248;-76
2023/08/06 08:22:13;;;;;;;12.47;6.67;;;;;;;32.51;51.62;99178.84;123483;1099;104353;-77
2023/08/06 08:24:42;;;;;;;11.50;6.50;;;;;;;32.66;51.17;99179.52;123835;1099;104261;-75
2023/08/06 08:27:11;;;;;;;12.93;6.07;;;;;;;32.65;50.57;99173.23;124021;1099;104312;-78
2023/08/06 08:29:39;;;;;;;10.85;5.90;;;;;;;32.70;50.53;99171.02;124360;1099;104169;-75
2023/08/06 08:32:08;;;;;;;9.67;5.90;;;;;;;32.79;49.13;99169.45;123788;1099;104315;-76
2023/08/06 08:34:37;;;;;;;13.73;6.47;;;;;;;32.84;49.61;99169.09;123863;1099;104331;-77
2023/08/06 08:37:06;;;;;;;13.90;6.10;;;;;;;32.88;49.40;99166.02;123942;1099;104322;-76
2023/08/06 08:39:35;;;;;;;11.63;5.90;;;;;;;33.03;49.31;99163.92;123903;1099;104354;-76
2023/08/06 08:42:03;;;;;;;11.03;5.90;;;;;;;33.18;48.59;99159.17;123736;1099;104268;-77
2023/08/06 08:44:33;;;;;;;9.00;5.40;;;;;;;33.23;48.26;99148.79;123809;1099;104301;-78
2023/08/06 08:47:02;;;;;;;8.77;5.60;;;;;;;33.34;48.12;99145.20;123692;1099;104329;-77
2023/08/06 08:49:31;;;;;;;10.17;5.50;;;;;;;33.43;47.88;99146.33;123727;1099;104338;-75
2023/08/06 08:52:02;;;;;;;11.67;5.87;;;;;;;33.45;47.67;99130.75;123893;1099;104252;-74
2023/08/06 08:54:32;;;;;;;11.33;5.67;;;;;;;33.49;47.47;99134.95;123456;1098;104322;-76
2023/08/06 08:57:02;;;;;;;12.60;5.47;;;;;;;33.60;47.37;99132.22;123676;1098;104400;-76
2023/08/06 08:59:30;;;;;;;12.20;6.20;;;;;;;33.64;46.97;99130.09;123695;1099;104369;-78
2023/08/06 09:02:00;;;;;;;10.13;5.40;;;;;;;33.72;46.72;99130.36;123437;1099;104348;-75
2023/08/06 09:04:31;;;;;;;10.00;5.00;;;;;;;33.72;46.08;99122.20;123710;1099;104213;-77
2023/08/06 09:07:00;;;;;;;8.90;4.90;;;;;;;33.88;45.55;99116.37;123874;1099;104329;-77
2023/08/06 09:09:34;;;;;;;8.50;5.00;;;;;;;33.93;45.31;99116.84;123851;1099;104294;-78
2023/08/06 09:12:06;;;;;;;9.57;4.60;;;;;;;33.96;44.92;99116.58;123803;1098;104258;-77
2023/08/06 09:14:36;;;;;;;9.30;4.50;;;;;;;34.07;44.47;99101.22;123512;1099;104280;-76
2023/08/06 09:17:05;;;;;;;6.93;4.20;;;;;;;34.13;43.69;99107.00;123753;1099;104166;-77
2023/08/06 09:19:34;;;;;;;10.03;4.60;;;;;;;34.25;43.17;99101.53;123704;1098;104275;-77
2023/08/06 09:22:03;;;;;;;7.43;3.90;;;;;;;34.34;43.35;99096.15;123717;1099;104248;-77
2023/08/06 09:24:31;;;;;;;12.37;4.20;;;;;;;34.44;42.51;99098.09;123675;1099;104344;-78
2023/08/06 09:27:04;;;;;;;10.53;4.10;;;;;;;34.45;42.03;99097.09;123808;1098;104239;-76
2023/08/06 09:29:33;;;;;;;7.45;4.17;;;;;;;34.54;41.33;99082.69;123634;1099;104271;-77
2023/08/06 09:32:01;;;;;;;10.30;4.40;;;;;;;34.60;40.93;99084.88;123678;1099;104267;-77
2023/08/06 09:34:30;;;;;;;9.30;3.80;;;;;;;34.67;40.10;99087.92;123731;1099;104320;-77
2023/08/06 09:36:58;;;;;;;4.97;3.60;;;;;;;34.76;39.98;99084.42;123726;1098;104337;-77
2023/08/06 09:39:29;;;;;;;9.20;3.75;;;;;;;34.82;39.79;99081.16;123806;1099;104277;-77
2023/08/06 09:41:59;;;;;;;9.30;3.70;;;;;;;34.80;39.57;99085.89;123929;1099;104251;-77
2023/08/06 09:44:28;;;;;;;6.10;3.73;;;;;;;34.68;39.26;99079.62;123774;1098;104273;-76
2023/08/06 09:46:58;;;;;;;7.57;3.90;;;;;;;34.65;38.78;99065.41;123869;1099;104280;-76
2023/08/06 09:49:28;;;;;;;6.30;3.90;;;;;;;34.66;39.19;99059.83;123577;1099;104635;-75
2023/08/06 09:51:59;;;;;;;8.50;3.60;;;;;;;34.74;38.37;99057.28;123669;1098;104705;-76
2023/08/06 09:54:30;;;;;;;9.67;3.77;;;;;;;34.81;38.02;99049.45;123625;1099;104288;-74
2023/08/06 09:56:58;;;;;;;6.53;3.73;;;;;;;34.89;38.06;99052.39;123573;1098;104271;-76
2023/08/06 09:59:27;;;;;;;9.97;3.30;;;;;;;35.01;37.56;99044.11;123607;1098;104264;-77
2023/08/06 10:01:56;;;;;;;8.33;3.40;;;;;;;35.08;37.02;99043.42;123689;1099;104398;-76
2023/08/06 10:04:25;;;;;;;11.30;3.63;;;;;;;35.14;36.68;99032.95;123674;1099;104341;-76
2023/08/06 10:06:55;;;;;;;6.43;3.23;;;;;;;35.15;36.06;99035.55;123621;1099;104341;-74
2023/08/06 10:09:24;;;;;;;8.30;3.60;;;;;;;35.09;35.44;99034.26;123495;1099;104341;-76
2023/08/06 10:11:53;;;;;;;6.23;3.17;;;;;;;35.14;35.37;99017.48;123500;1099;104290;-75
2023/08/06 10:14:26;;;;;;;8.97;3.30;;;;;;;35.18;35.65;99008.02;123522;1099;104354;-75
2023/08/06 10:16:57;;;;;;;7.93;3.20;;;;;;;35.19;35.44;99000.72;123568;1099;104241;-76
2023/08/06 10:19:27;;;;;;;6.35;3.30;;;;;;;35.28;35.35;98999.91;123598;1099;104268;-75
2023/08/06 10:22:13;;;;;;;5.43;2.97;;;;;;;35.31;35.19;98996.02;123697;1098;104198;-77
2023/08/06 10:24:51;;;;;;;6.27;3.23;;;;;;;35.41;34.93;98997.77;123843;1099;104268;-77
2023/08/06 10:27:30;;;;;;;7.37;3.50;;;;;;;35.42;34.58;98990.44;123666;1099;104459;-77
2023/08/06 10:30:22;;;;;;;6.63;3.53;;;;;;;35.45;34.79;98988.31;123827;1099;104271;-77
2023/08/06 10:32:52;;;;;;;8.33;3.60;;;;;;;35.45;34.55;98988.31;123679;1099;104383;-75
2023/08/06 10:35:31;;;;;;;7.10;3.60;;;;;;;35.47;34.67;98985.44;123716;1098;104285;-77
2023/08/06 10:38:03;;;;;;;9.63;3.23;;;;;;;35.50;34.54;98995.19;123878;1099;104165;-76
2023/08/06 10:40:32;;;;;;;8.07;3.30;;;;;;;35.52;34.30;98994.05;124081;1099;104341;-77
2023/08/06 10:43:01;;;;;;;8.47;3.43;;;;;;;35.43;34.04;98986.72;123757;1099;104341;-78
2023/08/06 10:45:34;;;;;;;8.70;3.30;;;;;;;35.33;34.26;98983.98;123859;1098;104271;-77
2023/08/06 10:48:03;;;;;;;7.47;3.45;;;;;;;35.24;34.32;98973.89;123718;1099;104175;-76
2023/08/06 10:50:32;;;;;;;6.43;3.20;;;;;;;35.25;34.22;98971.05;123795;1097;104243;-76
2023/08/06 10:53:06;;;;;;;7.13;3.57;;;;;;;35.42;33.87;98977.69;123598;1099;104351;-77
2023/08/06 10:55:35;;;;;;;9.03;3.10;;;;;;;35.51;33.55;98975.10;123891;1099;104246;-78
2023/08/06 10:58:04;;;;;;;8.97;3.30;;;;;;;35.58;33.33;98979.00;123367;1099;104192;-76
2023/08/06 11:00:35;;;;;;;7.23;3.40;;;;;;;35.58;33.03;98968.08;123655;1099;104216;-77
2023/08/06 11:03:04;;;;;;;6.57;3.40;;;;;;;35.63;33.23;98963.91;123606;1099;104216;-76
2023/08/06 11:05:33;;;;;;;3.77;2.90;;;;;;;35.65;33.05;98966.48;123252;1099;104345;-77
2023/08/06 11:08:02;;;;;;;6.57;3.17;;;;;;;35.68;32.82;98954.44;123859;1099;104290;-77
2023/08/06 11:10:32;;;;;;;7.00;3.17;;;;;;;35.77;32.44;98954.45;123634;1099;104342;-75
2023/08/06 11:13:03;;;;;;;6.50;3.10;;;;;;;35.88;32.11;98947.14;123442;1099;104238;-76
2023/08/06 11:15:32;;;;;;;4.70;3.10;;;;;;;35.93;32.31;98932.03;123640;1099;104354;-74
2023/08/06 11:18:02;;;;;;;6.67;3.63;;;;;;;35.97;32.22;98927.16;123698;1099;104360;-75
2023/08/06 11:20:31;;;;;;;6.30;3.30;;;;;;;35.92;32.15;98933.05;123590;1099;104226;-75